sensor_id;sensor_type;location;lat;lon;timestamp;pressure;altitude;pressure_sealevel;temperature;humidity
81622;BME280;71029;50.742;7.090;2023-07-02T00:02:15;100322.16;;;20.29;63.92
81622;BME280;71029;50.742;7.090;2023-07-02T00:04:42;100327.91;;;20.33;63.64
81622;BME280;71029;50.742;7.090;2023-07-02T00:07:10;100331.69;;;20.32;64.12
81622;BME280;71029;50.742;7.090;2023-07-02T00:09:36;100328.75;;;20.33;63.73
81622;BME280;71029;50.742;7.090;2023-07-02T00:12:04;100323.00;;;20.42;63.52
81622;BME280;71029;50.742;7.090;2023-07-02T00:14:30;100331.13;;;20.42;63.81
81622;BME280;71029;50.742;7.090;2023-07-02T00:16:57;100335.72;;;20.41;63.72
81622;BME280;71029;50.742;7.090;2023-07-02T00:19:24;100329.03;;;20.44;63.53
81622;BME280;71029;50.742;7.090;2023-07-02T00:21:51;100334.44;;;20.44;63.97
81622;BME280;71029;50.742;7.090;2023-07-02T00:24:19;100330.47;;;20.28;64.15
81622;BME280;71029;50.742;7.090;2023-07-02T00:26:46;100325.06;;;20.28;64.11
81622;BME280;71029;50.742;7.090;2023-07-02T00:29:12;100321.84;;;20.37;64.34
81622;BME280;71029;50.742;7.090;2023-07-02T00:31:39;100324.06;;;20.40;63.11
81622;BME280;71029;50.742;7.090;2023-07-02T00:34:06;100323.91;;;20.35;63.96
81622;BME280;71029;50.742;7.090;2023-07-02T00:36:33;100322.28;;;20.34;63.93
81622;BME280;71029;50.742;7.090;2023-07-02T00:38:59;100324.16;;;20.34;64.01
81622;BME280;71029;50.742;7.090;2023-07-02T00:41:26;100318.59;;;20.29;63.89
81622;BME280;71029;50.742;7.090;2023-07-02T00:43:52;100327.44;;;20.36;63.34
81622;BME280;71029;50.742;7.090;2023-07-02T00:46:23;100321.59;;;20.39;63.23
81622;BME280;71029;50.742;7.090;2023-07-02T00:48:53;100318.66;;;20.40;63.35
81622;BME280;71029;50.742;7.090;2023-07-02T00:51:26;100320.31;;;20.42;62.69
81622;BME280;71029;50.742;7.090;2023-07-02T00:53:55;100322.78;;;20.43;63.00
81622;BME280;71029;50.742;7.090;2023-07-02T00:56:22;100324.06;;;20.40;62.83
81622;BME280;71029;50.742;7.090;2023-07-02T00:58:51;100318.66;;;20.40;62.84
81622;BME280;71029;50.742;7.090;2023-07-02T01:01:24;100320.38;;;20.35;62.53
81622;BME280;71029;50.742;7.090;2023-07-02T01:06:33;100315.63;;;20.19;62.94
81622;BME280;71029;50.742;7.090;2023-07-02T01:09:02;100319.53;;;20.23;62.75
81622;BME280;71029;50.742;7.090;2023-07-02T01:11:30;100320.66;;;20.15;62.47
81622;BME280;71029;50.742;7.090;2023-07-02T01:14:02;100320.66;;;20.15;62.01
81622;BME280;71029;50.742;7.090;2023-07-02T01:16:30;100319.03;;;20.14;61.82
81622;BME280;71029;50.742;7.090;2023-07-02T01:19:01;100317.34;;;20.13;62.13
81622;BME280;71029;50.742;7.090;2023-07-02T01:21:31;100323.50;;;20.20;61.93
81622;BME280;71029;50.742;7.090;2023-07-02T01:24:00;100313.41;;;20.27;61.25
81622;BME280;71029;50.742;7.090;2023-07-02T01:26:31;100322.16;;;20.29;60.86
81622;BME280;71029;50.742;7.090;2023-07-02T01:29:14;100320.47;;;20.28;60.48
81622;BME280;71029;50.742;7.090;2023-07-02T01:31:40;100319.22;;;20.31;60.89
81622;BME280;71029;50.742;7.090;2023-07-02T01:34:07;100324.13;;;20.22;60.62
81622;BME280;71029;50.742;7.090;2023-07-02T01:36:35;100324.25;;;20.27;60.73
81622;BME280;71029;50.742;7.090;2023-07-02T01:39:02;100323.88;;;20.24;60.13
81622;BME280;71029;50.742;7.090;2023-07-02T01:41:29;100320.22;;;20.18;59.94
81622;BME280;71029;50.742;7.090;2023-07-02T01:43:56;100319.16;;;20.19;59.78
81622;BME280;71029;50.742;7.090;2023-07-02T01:46:22;100328.28;;;19.88;59.98
81622;BME280;71029;50.742;7.090;2023-07-02T01:48:49;100318.09;;;19.90;60.12
81622;BME280;71029;50.742;7.090;2023-07-02T01:51:15;100321.88;;;20.01;60.04
81622;BME280;71029;50.742;7.090;2023-07-02T01:53:42;100319.09;;;20.07;59.14
81622;BME280;71029;50.742;7.090;2023-07-02T01:56:08;100317.06;;;20.03;59.29
81622;BME280;71029;50.742;7.090;2023-07-02T01:58:34;100319.66;;;19.98;59.43
81622;BME280;71029;50.742;7.090;2023-07-02T02:01:01;100315.16;;;19.92;59.30
81622;BME280;71029;50.742;7.090;2023-07-02T02:03:27;100316.78;;;19.93;59.30
81622;BME280;71029;50.742;7.090;2023-07-02T02:05:54;100316.94;;;19.98;59.31
81622;BME280;71029;50.742;7.090;2023-07-02T02:08:21;100307.78;;;19.99;59.06
81622;BME280;71029;50.742;7.090;2023-07-02T02:10:47;100317.97;;;19.97;58.77
81622;BME280;71029;50.742;7.090;2023-07-02T02:13:14;100315.50;;;19.95;59.23
81622;BME280;71029;50.742;7.090;2023-07-02T02:15:40;100326.09;;;19.97;58.98
81622;BME280;71029;50.742;7.090;2023-07-02T02:18:07;100322.19;;;19.93;58.71
81622;BME280;71029;50.742;7.090;2023-07-02T02:20:33;100325.97;;;19.92;59.14
81622;BME280;71029;50.742;7.090;2023-07-02T02:23:00;100332.53;;;19.96;58.94
81622;BME280;71029;50.742;7.090;2023-07-02T02:25:27;100326.25;;;20.02;58.46
81622;BME280;71029;50.742;7.090;2023-07-02T02:27:53;100330.59;;;20.03;58.16
81622;BME280;71029;50.742;7.090;2023-07-02T02:30:19;100329.41;;;19.80;58.85
81622;BME280;71029;50.742;7.090;2023-07-02T02:32:46;100331.38;;;19.92;58.57
81622;BME280;71029;50.742;7.090;2023-07-02T02:35:13;100334.19;;;19.97;57.93
81622;BME280;71029;50.742;7.090;2023-07-02T02:37:40;100330.06;;;19.94;58.20
81622;BME280;71029;50.742;7.090;2023-07-02T02:40:07;100335.88;;;19.98;57.58
81622;BME280;71029;50.742;7.090;2023-07-02T02:42:35;100330.31;;;19.93;57.91
81622;BME280;71029;50.742;7.090;2023-07-02T02:45:03;100337.75;;;19.97;58.31
81622;BME280;71029;50.742;7.090;2023-07-02T02:47:29;100334.94;;;20.04;58.29
81622;BME280;71029;50.742;7.090;2023-07-02T02:49:56;100329.25;;;19.94;57.76
81622;BME280;71029;50.742;7.090;2023-07-02T02:52:22;100330.59;;;20.03;57.76
81622;BME280;71029;50.742;7.090;2023-07-02T02:54:50;100331.66;;;20.02;57.67
81622;BME280;71029;50.742;7.090;2023-07-02T02:57:19;100326.78;;;19.92;57.70
81622;BME280;71029;50.742;7.090;2023-07-02T02:59:45;100329.84;;;19.96;57.78
81622;BME280;71029;50.742;7.090;2023-07-02T03:02:12;100333.16;;;19.98;57.67
81622;BME280;71029;50.742;7.090;2023-07-02T03:04:39;100341.94;;;19.93;58.40
81622;BME280;71029;50.742;7.090;2023-07-02T03:07:07;100343.91;;;19.86;58.55
81622;BME280;71029;50.742;7.090;2023-07-02T03:09:34;100340.13;;;19.87;57.89
81622;BME280;71029;50.742;7.090;2023-07-02T03:12:00;100337.19;;;19.89;57.66
81622;BME280;71029;50.742;7.090;2023-07-02T03:14:27;100336.47;;;19.81;57.70
81622;BME280;71029;50.742;7.090;2023-07-02T03:16:54;100349.59;;;19.96;57.88
81622;BME280;71029;50.742;7.090;2023-07-02T03:19:21;100352.53;;;19.95;57.57
81622;BME280;71029;50.742;7.090;2023-07-02T03:21:48;100356.28;;;19.94;57.80
81622;BME280;71029;50.742;7.090;2023-07-02T03:24:15;100356.06;;;19.95;57.82
81622;BME280;71029;50.742;7.090;2023-07-02T03:26:43;100349.69;;;19.90;57.71
81622;BME280;71029;50.742;7.090;2023-07-02T03:29:10;100353.53;;;19.82;58.11
81622;BME280;71029;50.742;7.090;2023-07-02T03:31:37;100358.09;;;19.81;58.05
81622;BME280;71029;50.742;7.090;2023-07-02T03:34:07;100362.00;;;19.86;58.18
81622;BME280;71029;50.742;7.090;2023-07-02T03:36:33;100371.38;;;19.83;57.86
81622;BME280;71029;50.742;7.090;2023-07-02T03:39:00;100361.16;;;19.85;57.76
81622;BME280;71029;50.742;7.090;2023-07-02T03:41:27;100361.81;;;19.80;57.70
81622;BME280;71029;50.742;7.090;2023-07-02T03:43:54;100360.56;;;19.83;57.77
81622;BME280;71029;50.742;7.090;2023-07-02T03:46:20;100361.22;;;19.78;57.73
81622;BME280;71029;50.742;7.090;2023-07-02T03:48:47;100365.59;;;19.79;57.70
81622;BME280;71029;50.742;7.090;2023-07-02T03:51:14;100362.22;;;19.84;57.44
81622;BME280;71029;50.742;7.090;2023-07-02T03:53:41;100363.88;;;19.85;57.22
81622;BME280;71029;50.742;7.090;2023-07-02T03:56:08;100377.63;;;19.83;57.63
81622;BME280;71029;50.742;7.090;2023-07-02T03:58:35;100388.41;;;19.65;57.90
81622;BME280;71029;50.742;7.090;2023-07-02T04:01:01;100382.72;;;19.73;57.75
81622;BME280;71029;50.742;7.090;2023-07-02T04:03:27;100380.44;;;19.70;57.76
81622;BME280;71029;50.742;7.090;2023-07-02T04:05:54;100384.72;;;19.78;57.64
81622;BME280;71029;50.742;7.090;2023-07-02T04:08:21;100383.69;;;19.79;57.59
81622;BME280;71029;50.742;7.090;2023-07-02T04:10:48;100391.34;;;19.82;57.39
81622;BME280;71029;50.742;7.090;2023-07-02T04:13:15;100397.66;;;19.76;57.55
81622;BME280;71029;50.742;7.090;2023-07-02T04:15:42;100399.06;;;19.78;57.91
81622;BME280;71029;50.742;7.090;2023-07-02T04:18:08;100409.88;;;19.78;58.03
81622;BME280;71029;50.742;7.090;2023-07-02T04:20:35;100401.34;;;19.81;57.86
81622;BME280;71029;50.742;7.090;2023-07-02T04:23:04;100403.88;;;19.76;57.82
81622;BME280;71029;50.742;7.090;2023-07-02T04:25:31;100409.75;;;19.73;58.04
81622;BME280;71029;50.742;7.090;2023-07-02T04:28:17;100414.84;;;19.81;57.65
81622;BME280;71029;50.742;7.090;2023-07-02T04:30:45;100419.31;;;19.69;57.71
81622;BME280;71029;50.742;7.090;2023-07-02T04:33:13;100420.09;;;19.76;57.75
81622;BME280;71029;50.742;7.090;2023-07-02T04:35:40;100419.88;;;19.78;57.64
81622;BME280;71029;50.742;7.090;2023-07-02T04:38:07;100424.81;;;19.81;57.65
81622;BME280;71029;50.742;7.090;2023-07-02T04:40:34;100426.69;;;19.80;57.70
81622;BME280;71029;50.742;7.090;2023-07-02T04:43:01;100433.22;;;19.73;57.45
81622;BME280;71029;50.742;7.090;2023-07-02T04:45:28;100430.78;;;19.65;57.96
81622;BME280;71029;50.742;7.090;2023-07-02T04:48:03;100432.47;;;19.66;58.17
81622;BME280;71029;50.742;7.090;2023-07-02T04:50:30;100436.13;;;19.71;57.88
81622;BME280;71029;50.742;7.090;2023-07-02T04:52:56;100435.25;;;19.77;57.92
81622;BME280;71029;50.742;7.090;2023-07-02T04:55:22;100441.78;;;19.70;58.08
81622;BME280;71029;50.742;7.090;2023-07-02T04:57:49;100437.59;;;19.74;57.86
81622;BME280;71029;50.742;7.090;2023-07-02T05:00:16;100443.00;;;19.74;58.07
81622;BME280;71029;50.742;7.090;2023-07-02T05:02:42;100436.78;;;19.73;57.76
81622;BME280;71029;50.742;7.090;2023-07-02T05:05:09;100440.50;;;19.72;58.28
81622;BME280;71029;50.742;7.090;2023-07-02T05:07:36;100443.28;;;19.66;58.51
81622;BME280;71029;50.742;7.090;2023-07-02T05:10:02;100446.03;;;19.59;58.46
81622;BME280;71029;50.742;7.090;2023-07-02T05:12:29;100453.69;;;19.62;58.15
81622;BME280;71029;50.742;7.090;2023-07-02T05:14:56;100454.13;;;19.59;58.53
81622;BME280;71029;50.742;7.090;2023-07-02T05:17:22;100451.84;;;19.56;58.63
81622;BME280;71029;50.742;7.090;2023-07-02T05:19:49;100456.03;;;19.59;58.16
81622;BME280;71029;50.742;7.090;2023-07-02T05:22:15;100466.00;;;19.58;58.47
81622;BME280;71029;50.742;7.090;2023-07-02T05:24:45;100471.00;;;19.48;58.75
81622;BME280;71029;50.742;7.090;2023-07-02T05:27:12;100458.13;;;19.50;58.84
81622;BME280;71029;50.742;7.090;2023-07-02T05:29:39;100462.81;;;19.36;59.37
81622;BME280;71029;50.742;7.090;2023-07-02T05:32:05;100471.25;;;19.46;58.73
81622;BME280;71029;50.742;7.090;2023-07-02T05:34:33;100470.97;;;19.54;59.08
81622;BME280;71029;50.742;7.090;2023-07-02T05:37:00;100466.38;;;19.55;58.94
81622;BME280;71029;50.742;7.090;2023-07-02T05:39:26;100468.03;;;19.63;58.57
81622;BME280;71029;50.742;7.090;2023-07-02T05:41:53;100466.00;;;19.58;58.88
81622;BME280;71029;50.742;7.090;2023-07-02T05:44:19;100474.03;;;19.65;58.88
81622;BME280;71029;50.742;7.090;2023-07-02T05:46:46;100475.47;;;19.67;58.59
81622;BME280;71029;50.742;7.090;2023-07-02T05:49:13;100475.78;;;19.52;59.51
81622;BME280;71029;50.742;7.090;2023-07-02T05:51:40;100478.47;;;19.59;59.38
81622;BME280;71029;50.742;7.090;2023-07-02T05:54:06;100480.09;;;19.60;59.62
81622;BME280;71029;50.742;7.090;2023-07-02T05:56:33;100478.00;;;19.62;59.58
81622;BME280;71029;50.742;7.090;2023-07-02T05:58:59;100477.19;;;19.62;59.71
81622;BME280;71029;50.742;7.090;2023-07-02T06:01:26;100485.69;;;19.65;59.50
81622;BME280;71029;50.742;7.090;2023-07-02T06:03:52;100484.63;;;19.66;59.46
81622;BME280;71029;50.742;7.090;2023-07-02T06:06:20;100482.13;;;19.65;59.70
81622;BME280;71029;50.742;7.090;2023-07-02T06:08:47;100481.31;;;19.64;59.91
81622;BME280;71029;50.742;7.090;2023-07-02T06:11:14;100491.38;;;19.50;60.57
81622;BME280;71029;50.742;7.090;2023-07-02T06:13:41;100495.50;;;19.60;60.43
81622;BME280;71029;50.742;7.090;2023-07-02T06:16:07;100499.56;;;19.69;60.67
81622;BME280;71029;50.742;7.090;2023-07-02T06:18:34;100487.94;;;19.68;60.63
81622;BME280;71029;50.742;7.090;2023-07-02T06:21:01;100491.84;;;19.72;60.86
81622;BME280;71029;50.742;7.090;2023-07-02T06:23:29;100487.84;;;19.81;60.36
81622;BME280;71029;50.742;7.090;2023-07-02T06:25:56;100498.47;;;19.76;60.48
81622;BME280;71029;50.742;7.090;2023-07-02T06:28:28;100497.03;;;19.74;61.07
81622;BME280;71029;50.742;7.090;2023-07-02T06:30:55;100500.75;;;19.73;60.70
81622;BME280;71029;50.742;7.090;2023-07-02T06:33:21;100499.94;;;19.72;60.62
81622;BME280;71029;50.742;7.090;2023-07-02T06:35:49;100506.56;;;19.76;60.62
81622;BME280;71029;50.742;7.090;2023-07-02T06:38:15;100505.53;;;19.77;60.71
81622;BME280;71029;50.742;7.090;2023-07-02T06:40:41;100506.13;;;19.79;60.40
81622;BME280;71029;50.742;7.090;2023-07-02T06:43:08;100511.97;;;19.76;60.38
81622;BME280;71029;50.742;7.090;2023-07-02T06:45:34;100508.22;;;19.77;60.46
81622;BME280;71029;50.742;7.090;2023-07-02T06:48:01;100514.22;;;19.79;60.36
81622;BME280;71029;50.742;7.090;2023-07-02T06:50:27;100516.97;;;19.73;60.41
81622;BME280;71029;50.742;7.090;2023-07-02T06:52:54;100518.16;;;19.83;60.35
81622;BME280;71029;50.742;7.090;2023-07-02T06:55:21;100522.88;;;19.88;59.69
81622;BME280;71029;50.742;7.090;2023-07-02T06:57:47;100522.06;;;19.88;59.57
81622;BME280;71029;50.742;7.090;2023-07-02T07:00:14;100526.41;;;19.89;59.52
81622;BME280;71029;50.742;7.090;2023-07-02T07:02:41;100530.03;;;19.82;59.47
81622;BME280;71029;50.742;7.090;2023-07-02T07:05:08;100531.50;;;19.78;59.70
81622;BME280;71029;50.742;7.090;2023-07-02T07:07:35;100532.28;;;19.86;59.54
81622;BME280;71029;50.742;7.090;2023-07-02T07:10:02;100538.28;;;19.88;58.71
81622;BME280;71029;50.742;7.090;2023-07-02T07:12:30;100541.22;;;19.86;58.62
81622;BME280;71029;50.742;7.090;2023-07-02T07:14:56;100535.91;;;19.73;57.82
81622;BME280;71029;50.742;7.090;2023-07-02T07:17:23;100538.22;;;19.69;58.02
81622;BME280;71029;50.742;7.090;2023-07-02T07:19:50;100545.59;;;19.80;57.57
81622;BME280;71029;50.742;7.090;2023-07-02T07:22:16;100550.38;;;19.85;57.23
81622;BME280;71029;50.742;7.090;2023-07-02T07:24:43;100549.00;;;19.76;57.51
81622;BME280;71029;50.742;7.090;2023-07-02T07:27:09;100543.53;;;19.82;57.17
81622;BME280;71029;50.742;7.090;2023-07-02T07:29:36;100532.88;;;19.88;56.88
81622;BME280;71029;50.742;7.090;2023-07-02T07:32:03;100544.41;;;19.76;56.56
81622;BME280;71029;50.742;7.090;2023-07-02T07:34:29;100550.13;;;19.87;56.74
81622;BME280;71029;50.742;7.090;2023-07-02T07:36:56;100544.13;;;19.84;56.29
81622;BME280;71029;50.742;7.090;2023-07-02T07:39:22;100555.13;;;19.90;56.41
81622;BME280;71029;50.742;7.090;2023-07-02T07:41:49;100546.56;;;19.93;55.56
81622;BME280;71029;50.742;7.090;2023-07-02T07:44:15;100547.63;;;19.92;56.19
81622;BME280;71029;50.742;7.090;2023-07-02T07:46:42;100546.34;;;19.94;55.83
81622;BME280;71029;50.742;7.090;2023-07-02T07:49:09;100541.81;;;19.88;56.08
81622;BME280;71029;50.742;7.090;2023-07-02T07:51:35;100543.41;;;19.96;55.56
81622;BME280;71029;50.742;7.090;2023-07-02T07:54:04;100545.06;;;19.97;55.41
81622;BME280;71029;50.742;7.090;2023-07-02T07:56:31;100541.53;;;19.96;55.46
81622;BME280;71029;50.742;7.090;2023-07-02T07:58:58;100550.47;;;19.97;54.71
81622;BME280;71029;50.742;7.090;2023-07-02T08:01:26;100540.09;;;19.94;54.77
81622;BME280;71029;50.742;7.090;2023-07-02T08:03:53;100546.75;;;19.98;54.33
81622;BME280;71029;50.742;7.090;2023-07-02T08:06:19;100552.75;;;20.00;53.98
81622;BME280;71029;50.742;7.090;2023-07-02T08:08:46;100550.25;;;19.98;53.16
81622;BME280;71029;50.742;7.090;2023-07-02T08:11:12;100547.16;;;19.95;54.27
81622;BME280;71029;50.742;7.090;2023-07-02T08:13:39;100563.09;;;20.03;53.25
81622;BME280;71029;50.742;7.090;2023-07-02T08:16:06;100548.34;;;20.05;53.34
81622;BME280;71029;50.742;7.090;2023-07-02T08:18:32;100557.41;;;20.11;53.25
81622;BME280;71029;50.742;7.090;2023-07-02T08:20:59;100556.81;;;20.09;53.08
81622;BME280;71029;50.742;7.090;2023-07-02T08:23:25;100559.06;;;20.12;52.69
81622;BME280;71029;50.742;7.090;2023-07-02T08:25:52;100566.22;;;20.06;52.12
81622;BME280;71029;50.742;7.090;2023-07-02T08:28:18;100571.38;;;20.08;52.98
81622;BME280;71029;50.742;7.090;2023-07-02T08:30:45;100566.97;;;20.14;53.08
81622;BME280;71029;50.742;7.090;2023-07-02T08:33:12;100566.81;;;20.08;52.94
81622;BME280;71029;50.742;7.090;2023-07-02T08:35:38;100577.78;;;20.14;53.06
81622;BME280;71029;50.742;7.090;2023-07-02T08:38:05;100583.19;;;20.14;53.52
81622;BME280;71029;50.742;7.090;2023-07-02T08:40:31;100575.69;;;20.16;52.83
81622;BME280;71029;50.742;7.090;2023-07-02T08:42:58;100581.47;;;20.19;52.72
81622;BME280;71029;50.742;7.090;2023-07-02T08:45:27;100577.09;;;20.18;52.98
81622;BME280;71029;50.742;7.090;2023-07-02T08:47:54;100583.34;;;20.19;52.60
81622;BME280;71029;50.742;7.090;2023-07-02T08:50:23;100580.63;;;20.19;52.81
81622;BME280;71029;50.742;7.090;2023-07-02T08:52:50;100576.06;;;20.19;52.93
81622;BME280;71029;50.742;7.090;2023-07-02T08:55:16;100570.22;;;20.22;52.77
81622;BME280;71029;50.742;7.090;2023-07-02T08:57:49;100576.78;;;20.33;51.93
81622;BME280;71029;50.742;7.090;2023-07-02T09:00:16;100581.94;;;20.34;51.65
81622;BME280;71029;50.742;7.090;2023-07-02T09:02:42;100577.69;;;20.45;51.59
81622;BME280;71029;50.742;7.090;2023-07-02T09:05:09;100574.88;;;20.58;50.51
81622;BME280;71029;50.742;7.090;2023-07-02T09:07:46;100585.03;;;20.63;50.23
81622;BME280;71029;50.742;7.090;2023-07-02T09:10:30;100584.19;;;20.62;49.86
81622;BME280;71029;50.742;7.090;2023-07-02T09:13:05;100591.03;;;20.65;50.11
81622;BME280;71029;50.742;7.090;2023-07-02T09:15:38;100586.31;;;20.79;49.80
81622;BME280;71029;50.742;7.090;2023-07-02T09:18:19;100599.16;;;20.83;49.63
81622;BME280;71029;50.742;7.090;2023-07-02T09:20:49;100593.59;;;20.78;50.22
81622;BME280;71029;50.742;7.090;2023-07-02T09:23:17;100598.72;;;20.86;49.58
81622;BME280;71029;50.742;7.090;2023-07-02T09:25:43;100599.38;;;20.82;49.42
81622;BME280;71029;50.742;7.090;2023-07-02T09:28:21;100609.16;;;20.83;49.65
81622;BME280;71029;50.742;7.090;2023-07-02T09:33:18;100606.16;;;20.73;50.03
81622;BME280;71029;50.742;7.090;2023-07-02T09:35:45;100600.03;;;20.77;49.71
81622;BME280;71029;50.742;7.090;2023-07-02T09:38:12;100590.16;;;20.71;49.86
81622;BME280;71029;50.742;7.090;2023-07-02T09:40:45;100600.44;;;20.81;50.46
81622;BME280;71029;50.742;7.090;2023-07-02T09:43:14;100605.03;;;20.80;50.49
81622;BME280;71029;50.742;7.090;2023-07-02T09:45:46;100606.31;;;20.78;50.78
81622;BME280;71029;50.742;7.090;2023-07-02T09:48:14;100592.09;;;20.82;50.46
81622;BME280;71029;50.742;7.090;2023-07-02T09:50:47;100595.84;;;20.81;50.55
81622;BME280;71029;50.742;7.090;2023-07-02T09:53:14;100598.31;;;20.83;50.96
81622;BME280;71029;50.742;7.090;2023-07-02T09:55:44;100600.59;;;20.86;50.57
81622;BME280;71029;50.742;7.090;2023-07-02T09:58:10;100605.38;;;20.84;50.30
81622;BME280;71029;50.742;7.090;2023-07-02T10:00:41;100595.84;;;20.81;50.35
81622;BME280;71029;50.742;7.090;2023-07-02T10:03:08;100592.09;;;20.82;50.63
81622;BME280;71029;50.742;7.090;2023-07-02T10:05:35;100594.13;;;20.87;50.50
81622;BME280;71029;50.742;7.090;2023-07-02T10:08:15;100594.50;;;20.90;50.71
81622;BME280;71029;50.742;7.090;2023-07-02T10:10:44;100589.66;;;20.92;49.94
81622;BME280;71029;50.742;7.090;2023-07-02T10:13:11;100595.69;;;20.94;50.07
81622;BME280;71029;50.742;7.090;2023-07-02T10:15:38;100604.41;;;20.97;49.38
81622;BME280;71029;50.742;7.090;2023-07-02T10:18:06;100586.88;;;20.99;50.04
81622;BME280;71029;50.742;7.090;2023-07-02T10:20:38;100592.06;;;21.01;49.85
81622;BME280;71029;50.742;7.090;2023-07-02T10:23:07;100592.38;;;20.92;48.64
81622;BME280;71029;50.742;7.090;2023-07-02T10:25:35;100594.56;;;20.84;49.10
81622;BME280;71029;50.742;7.090;2023-07-02T10:28:17;100597.81;;;20.74;49.00
81622;BME280;71029;50.742;7.090;2023-07-02T10:30:45;100595.16;;;20.67;48.98
81622;BME280;71029;50.742;7.090;2023-07-02T10:33:16;100586.28;;;20.60;48.89
81622;BME280;71029;50.742;7.090;2023-07-02T10:35:45;100591.69;;;20.60;49.75
81622;BME280;71029;50.742;7.090;2023-07-02T10:38:23;100592.38;;;20.56;48.42
81622;BME280;71029;50.742;7.090;2023-07-02T10:43:27;100598.41;;;20.58;49.18
81622;BME280;71029;50.742;7.090;2023-07-02T10:45:56;100599.28;;;20.52;48.46
81622;BME280;71029;50.742;7.090;2023-07-02T10:48:23;100604.94;;;20.50;48.55
81622;BME280;71029;50.742;7.090;2023-07-02T10:50:50;100601.84;;;20.47;48.34
81622;BME280;71029;50.742;7.090;2023-07-02T10:53:18;100607.03;;;20.48;48.72
81622;BME280;71029;50.742;7.090;2023-07-02T10:55:45;100607.63;;;20.50;49.38
81622;BME280;71029;50.742;7.090;2023-07-02T10:58:12;100607.03;;;20.48;49.27
81622;BME280;71029;50.742;7.090;2023-07-02T11:00:45;100600.34;;;20.51;49.44
81622;BME280;71029;50.742;7.090;2023-07-02T11:03:22;100606.81;;;20.50;48.95
81622;BME280;71029;50.742;7.090;2023-07-02T11:05:50;100591.28;;;20.38;48.82
81622;BME280;71029;50.742;7.090;2023-07-02T11:08:18;100589.97;;;20.48;48.74
81622;BME280;71029;50.742;7.090;2023-07-02T11:10:47;100592.44;;;20.49;48.43
81622;BME280;71029;50.742;7.090;2023-07-02T11:13:19;100591.78;;;20.54;48.77
81622;BME280;71029;50.742;7.090;2023-07-02T11:15:46;100591.50;;;20.62;48.51
81622;BME280;71029;50.742;7.090;2023-07-02T11:18:18;100598.09;;;20.66;48.37
81622;BME280;71029;50.742;7.090;2023-07-02T11:20:47;100593.91;;;20.70;48.66
81622;BME280;71029;50.742;7.090;2023-07-02T11:23:21;100588.84;;;20.74;48.16
81622;BME280;71029;50.742;7.090;2023-07-02T11:25:59;100584.09;;;20.69;48.04
81622;BME280;71029;50.742;7.090;2023-07-02T11:28:27;100583.91;;;20.71;47.82
81622;BME280;71029;50.742;7.090;2023-07-02T11:30:54;100589.97;;;20.66;47.47
81622;BME280;71029;50.742;7.090;2023-07-02T11:33:38;100592.75;;;20.59;47.21
81622;BME280;71029;50.742;7.090;2023-07-02T11:36:07;100587.34;;;20.59;47.33
81622;BME280;71029;50.742;7.090;2023-07-02T11:38:36;100601.50;;;20.61;47.00
81622;BME280;71029;50.742;7.090;2023-07-02T11:41:03;100611.03;;;20.64;46.41
81622;BME280;71029;50.742;7.090;2023-07-02T11:43:31;100605.16;;;20.67;46.36
81622;BME280;71029;50.742;7.090;2023-07-02T11:45:58;100600.97;;;20.71;46.55
81622;BME280;71029;50.742;7.090;2023-07-02T11:48:25;100603.06;;;20.69;45.62
81622;BME280;71029;50.742;7.090;2023-07-02T11:50:51;100595.41;;;20.66;45.64
81622;BME280;71029;50.742;7.090;2023-07-02T11:53:18;100603.97;;;20.63;45.89
81622;BME280;71029;50.742;7.090;2023-07-02T11:55:45;100606.81;;;20.68;45.46
81622;BME280;71029;50.742;7.090;2023-07-02T11:58:11;100617.56;;;20.75;45.52
81622;BME280;71029;50.742;7.090;2023-07-02T12:00:38;100609.84;;;20.78;45.23
81622;BME280;71029;50.742;7.090;2023-07-02T12:03:04;100615.84;;;20.80;45.71
81622;BME280;71029;50.742;7.090;2023-07-02T12:05:31;100614.22;;;20.79;45.68
81622;BME280;71029;50.742;7.090;2023-07-02T12:07:57;100620.88;;;20.77;45.65
81622;BME280;71029;50.742;7.090;2023-07-02T12:10:24;100617.97;;;20.78;46.54
81622;BME280;71029;50.742;7.090;2023-07-02T12:12:50;100621.69;;;20.77;46.16
81622;BME280;71029;50.742;7.090;2023-07-02T12:15:17;100616.28;;;20.77;46.75
81622;BME280;71029;50.742;7.090;2023-07-02T12:17:44;100620.06;;;20.76;46.70
81622;BME280;71029;50.742;7.090;2023-07-02T12:20:10;100620.44;;;20.80;46.74
81622;BME280;71029;50.742;7.090;2023-07-02T12:22:37;100628.78;;;20.78;47.85
81622;BME280;71029;50.742;7.090;2023-07-02T12:25:05;100629.91;;;20.89;47.93
81622;BME280;71029;50.742;7.090;2023-07-02T12:27:31;100619.44;;;20.92;47.83
81622;BME280;71029;50.742;7.090;2023-07-02T12:29:58;100628.63;;;20.91;47.94
81622;BME280;71029;50.742;7.090;2023-07-02T12:32:24;100627.81;;;20.91;48.05
81622;BME280;71029;50.742;7.090;2023-07-02T12:34:51;100624.28;;;20.90;48.04
81622;BME280;71029;50.742;7.090;2023-07-02T12:37:17;100624.13;;;20.85;48.11
81622;BME280;71029;50.742;7.090;2023-07-02T12:39:45;100619.09;;;20.89;47.99
81622;BME280;71029;50.742;7.090;2023-07-02T12:42:11;100631.78;;;20.88;47.85
81622;BME280;71029;50.742;7.090;2023-07-02T12:44:38;100632.03;;;20.87;47.59
81622;BME280;71029;50.742;7.090;2023-07-02T12:47:05;100630.50;;;20.91;47.54
81622;BME280;71029;50.742;7.090;2023-07-02T12:49:31;100632.56;;;20.95;47.87
81622;BME280;71029;50.742;7.090;2023-07-02T12:51:58;100644.88;;;20.91;47.42
81622;BME280;71029;50.742;7.090;2023-07-02T12:54:24;100638.41;;;20.92;47.71
81622;BME280;71029;50.742;7.090;2023-07-02T12:56:51;100633.63;;;20.94;47.62
81622;BME280;71029;50.742;7.090;2023-07-02T12:59:18;100635.25;;;20.95;47.21
81622;BME280;71029;50.742;7.090;2023-07-02T13:01:44;100638.09;;;21.01;46.62